KMBL

Details ICAO KMBL (MBL)
Name MANISTEE CO BLACKER
Region United States
Timezone America/Detroit (UTC-5.0)
Plans Departing 2
Arriving 1
Stats Elevation 621 ft / 189 m (AMSL)
Location 44.272383° -86.248208°
Runways 2
Magnetic Variation 5.471° W
Sunrise 2017-12-18 13:17:19 UTC / 2017-12-18 08:17:19 Local
Sunset 2017-12-18 22:08:50 UTC / 2017-12-18 17:08:50 Local
Advertisement - Login to hide

Runways

ID Width Length Bearing (true) Bearing (mag) Surface Threshold Offset Overrun Length
09 98 ft / 30 m 5,486 ft / 1,672 m 91.46° 96.93° Asphalt 0 ft / 0 m 810 ft / 247 m
18 75 ft / 23 m 2,723 ft / 830 m 181.44° 186.91° Asphalt 0 ft / 0 m 0 ft / 0 m
27 98 ft / 30 m 5,486 ft / 1,672 m 271.48° 276.95° Asphalt 0 ft / 0 m 0 ft / 0 m
36 75 ft / 23 m 2,723 ft / 830 m 1.44° 6.91° Asphalt 0 ft / 0 m 0 ft / 0 m

Map

Weather


0- 5 10 15 20 25 30 35+ Temperature / ° C

Clouds and Precipitation
Forecast for 2017-12-18 06:00 UTC. Updated 31 minutes ago

Ground ~20,000 ft ~40,000 ft Winds

METAR

KMBL 180544Z AUTO 00000KT 2 1/2SM BR OVC004 M02/M03 A2995 RMK AO2 FZRANO PNO $

TAF

TAF AMD KMBL 180411Z 1804/1824 11003KT 4SM BR OVC006 FM181300 00000KT 6SM BR OVC009 FM181600 24005KT P6SM OVC015

Frequencies

Recorded 118.32 MHz AWOS 3
Unicom 122.80 MHz CTAF/UNICOM
Warning: Do not use this data for real-world aviation or navigation. No guarantee of current accuracy is given.